Stations météo

réclame
Mon MeteoGroup
Diepenbeek, Belgique (6477): Température de l'air & dewpoint: 14.07.2019 16:00:00 - 20.07.2019 16:00:00 (CEST)Diepenbeek, Belgique (6477): Vitesse du vent & gusts: 14.07.2019 16:00:00 - 20.07.2019 16:00:00 (CEST)Diepenbeek, Belgique (6477): Direction du vent: 14.07.2019 16:00:00 - 20.07.2019 16:00:00 (CEST)Diepenbeek, Belgique (6477): reduced air pressure: 14.07.2019 16:00:00 - 20.07.2019 16:00:00 (CEST)Diepenbeek, Belgique (6477): Ensoleillement: 14.07.2019 16:00:00 - 20.07.2019 16:00:00 (CEST)Diepenbeek, Belgique (6477): Quantités de précipitations: 14.07.2019 16:00:00 - 20.07.2019 16:00:00 (CEST)
Date & Time tt [°C] td [°C] ff [km/h] ff [knt] fx [km/h] fx [knt] dd ppp [hPa] sd [min] rr [mm]
20.07.2019 16:00:00 - - - - - - - - - -
20.07.2019 15:00:00 27,0 16,8 15 8 23 13 SW 1010,2 15 0,0
20.07.2019 14:00:00 26,5 16,9 11 6 18 10 SW 1010,3 19 0,0
20.07.2019 13:00:00 24,8 17,2 4 2 16 9 W 1010,7 12 0,0
20.07.2019 12:00:00 24,4 16,5 7 4 19 11 WNW 1010,9 12 0,0
20.07.2019 11:00:00 24,1 16,0 11 6 19 11 NNW 1010,5 1 0,0
20.07.2019 10:00:00 23,8 15,9 10 6 20 11 SSW 1010,4 0 0,0
20.07.2019 09:00:00 22,8 16,0 12 6 19 10 S 1010,4 21 0,0
20.07.2019 08:00:00 20,4 16,0 7 4 14 8 S 1010,5 34 0,0
20.07.2019 07:00:00 18,0 15,0 8 5 13 7 SSE 1010,8 20 0,0
20.07.2019 06:00:00 16,5 14,1 6 4 9 5 SSE 1011,0 0 0,0
20.07.2019 05:00:00 17,2 14,4 7 4 13 7 SSE 1011,5 0 0,0
20.07.2019 04:00:00 16,6 14,5 7 4 11 6 SE 1011,9 0 0,0
20.07.2019 03:00:00 14,6 13,5 7 4 9 5 SE 1012,2 0 0,0
20.07.2019 02:00:00 14,9 13,3 4 2 7 4 ESE 1012,7 0 0,0
20.07.2019 01:00:00 15,6 13,8 4 2 10 6 SSW 1013,1 0 0,0
20.07.2019 00:00:00 16,1 14,1 0 0 3 2 N 1013,5 0 0,0
19.07.2019 23:00:00 17,2 14,4 0 0 5 3 N 1013,6 0 0,0
19.07.2019 22:00:00 20,2 14,8 4 2 6 3 SSE 1013,6 0 0,0
19.07.2019 21:00:00 23,0 13,5 5 3 16 8 S 1013,6 0 0,0
19.07.2019 20:00:00 24,1 12,4 11 6 19 10 WSW 1013,9 36 0,0
19.07.2019 19:00:00 24,5 12,2 10 5 21 12 WSW 1013,8 46 0,0
19.07.2019 18:00:00 25,0 11,4 17 9 27 15 WSW 1014,1 60 0,0
19.07.2019 17:00:00 24,9 11,9 14 7 26 14 SW 1014,3 60 0,0
19.07.2019 16:00:00 24,4 12,5 12 6 22 12 W 1014,7 28 0,0
19.07.2019 15:00:00 24,1 12,8 13 7 26 14 W 1014,9 37 0,0
19.07.2019 14:00:00 23,5 12,7 14 8 27 15 WSW 1014,8 51 0,0
19.07.2019 13:00:00 22,3 13,4 16 9 29 16 WSW 1015,0 57 0,0
19.07.2019 12:00:00 21,4 14,0 17 9 25 13 SW 1015,1 60 0,0
19.07.2019 11:00:00 20,2 14,5 12 6 20 11 WSW 1015,2 32 0,0
19.07.2019 10:00:00 18,5 13,9 11 6 18 10 W 1014,9 27 0,0
19.07.2019 09:00:00 17,4 13,5 12 6 18 10 WSW 1015,0 0 0,0
19.07.2019 08:00:00 16,8 13,5 11 6 16 9 SW 1014,4 0 0,0
19.07.2019 07:00:00 16,8 14,0 9 5 16 9 WSW 1014,2 0 0,0
19.07.2019 06:00:00 17,4 15,0 9 5 16 9 WSW 1013,8 0 0,0
19.07.2019 05:00:00 17,4 15,7 6 4 11 6 SW 1013,7 0 0,0
19.07.2019 04:00:00 17,4 15,7 6 3 12 7 SW 1013,8 0 0,0
19.07.2019 03:00:00 17,0 15,4 5 3 10 6 SSW 1013,6 0 0,0
19.07.2019 02:00:00 17,0 15,5 4 2 7 4 SSW 1013,5 0 0,0
19.07.2019 01:00:00 17,1 15,0 4 2 9 5 S 1013,5 0 0,0
19.07.2019 00:00:00 18,0 15,2 6 4 11 6 SW 1013,3 0 0,0
18.07.2019 23:00:00 19,1 15,1 8 4 14 8 SW 1013,2 0 0,0
18.07.2019 22:00:00 20,0 14,7 9 5 19 11 W 1013,2 0 0,0
18.07.2019 21:00:00 21,0 14,6 11 6 35 19 WNW 1012,6 0 0,0
18.07.2019 20:00:00 22,7 14,1 11 6 14 8 WSW 1011,8 0 0,0
18.07.2019 19:00:00 23,0 13,5 8 5 29 16 W 1012,0 14 0,0
18.07.2019 18:00:00 23,4 12,8 15 8 31 17 W 1011,9 34 0,0
18.07.2019 17:00:00 23,1 11,2 15 8 26 14 W 1012,0 0 0,0
18.07.2019 16:00:00 23,4 12,9 11 6 22 12 W 1012,0 6 0,0
18.07.2019 15:00:00 23,3 13,4 14 7 30 16 W 1012,0 3 0,0
18.07.2019 14:00:00 23,5 13,4 18 10 37 20 WSW 1012,1 20 0,0
18.07.2019 13:00:00 23,0 12,2 18 10 31 17 SW 1012,2 37 0,0
18.07.2019 12:00:00 22,9 9,8 14 7 23 12 SW 1012,1 60 0,0
18.07.2019 11:00:00 21,1 10,4 12 7 19 10 WSW 1012,2 60 0,0
18.07.2019 10:00:00 19,4 12,8 11 6 18 10 SW 1012,3 54 0,0
18.07.2019 09:00:00 18,5 13,2 13 7 19 10 WSW 1012,4 54 0,0
18.07.2019 08:00:00 16,9 13,6 4 2 10 5 S 1012,3 26 0,0
18.07.2019 07:00:00 12,3 11,8 4 2 13 7 SSE 1012,2 0 0,0
18.07.2019 06:00:00 11,3 10,8 4 2 6 3 E 1012,3 0 0,0
18.07.2019 05:00:00 11,7 11,1 4 2 6 3 ESE 1012,3 0 0,0
18.07.2019 04:00:00 12,2 11,5 4 2 4 2 E 1012,7 0 0,0
18.07.2019 03:00:00 12,9 12,0 4 2 5 3 E 1013,2 0 0,0
18.07.2019 02:00:00 13,3 12,2 4 2 6 3 E 1013,4 0 0,0
18.07.2019 01:00:00 13,7 12,5 4 2 4 2 E 1013,3 0 0,0
18.07.2019 00:00:00 14,5 12,9 4 2 6 4 E 1013,3 0 0,0
17.07.2019 23:00:00 15,5 13,0 0 0 4 2 N 1013,6 0 0,0
17.07.2019 22:00:00 17,8 14,3 4 2 4 2 S 1013,7 0 0,0
17.07.2019 21:00:00 21,0 13,1 4 2 7 4 E 1013,6 0 0,0
17.07.2019 20:00:00 21,8 12,0 7 4 11 6 SE 1013,6 35 0,0
17.07.2019 19:00:00 23,5 11,9 6 4 19 10 NE 1013,9 60 0,0
17.07.2019 18:00:00 24,1 11,6 8 5 18 10 NE 1014,1 60 0,0
17.07.2019 17:00:00 24,1 12,0 11 6 20 11 NE 1014,7 60 0,0
17.07.2019 16:00:00 24,2 12,0 6 4 19 10 E 1015,0 59 0,0
17.07.2019 15:00:00 23,7 12,2 6 3 18 10 E 1015,3 60 0,0
17.07.2019 14:00:00 23,0 12,3 7 4 27 15 E 1015,8 58 0,0
17.07.2019 13:00:00 21,2 12,2 6 4 13 7 ENE 1016,3 60 0,0
17.07.2019 12:00:00 20,6 12,5 7 4 17 9 NE 1016,6 60 0,0
17.07.2019 11:00:00 19,5 12,4 9 5 15 8 E 1016,7 60 0,0
17.07.2019 10:00:00 17,8 13,0 4 2 9 5 NE 1016,8 60 0,0
17.07.2019 09:00:00 14,2 12,3 4 2 5 3 ESE 1017,3 60 0,0
17.07.2019 08:00:00 11,0 11,0 4 2 4 2 SW 1017,0 13 0,0
17.07.2019 07:00:00 8,0 8,0 0 0 4 2 N 1017,1 0 0,0
17.07.2019 06:00:00 5,8 5,8 0 0 4 2 N 1017,4 0 0,0
17.07.2019 05:00:00 6,4 6,4 4 2 4 2 SE 1017,2 0 0,0
17.07.2019 04:00:00 6,7 6,7 0 0 4 2 N 1017,7 0 0,0
17.07.2019 03:00:00 7,4 7,4 0 0 3 2 N 1017,9 0 0,0
17.07.2019 02:00:00 8,4 8,4 4 2 4 2 SE 1018,0 0 0,0
17.07.2019 01:00:00 9,4 9,3 0 0 4 2 N 1018,2 0 0,0
17.07.2019 00:00:00 10,4 10,4 0 0 4 2 N 1018,2 0 0,0
16.07.2019 23:00:00 12,1 10,8 0 0 4 2 N 1018,2 0 0,0
16.07.2019 22:00:00 14,6 12,2 4 2 7 4 S 1018,1 7 0,0
16.07.2019 21:00:00 17,9 12,1 7 4 10 5 S 1018,1 60 0,0
16.07.2019 20:00:00 19,4 11,4 4 2 10 5 SW 1018,1 60 0,0
16.07.2019 19:00:00 19,7 11,4 4 2 12 7 W 1018,4 60 0,0
16.07.2019 18:00:00 19,6 11,5 6 3 18 10 WSW 1018,9 60 0,0
16.07.2019 17:00:00 18,5 11,2 5 3 13 7 W 1019,4 14 0,0
16.07.2019 16:00:00 18,1 11,2 7 4 12 6 NW 1019,6 0 0,0
16.07.2019 15:00:00 17,5 11,1 4 2 10 5 W 1019,8 0 0,0
16.07.2019 14:00:00 16,7 10,9 4 2 13 7 W 1020,1 0 0,0
16.07.2019 13:00:00 16,2 10,9 4 2 10 5 WNW 1020,3 0 0,0
16.07.2019 12:00:00 15,4 11,5 5 3 10 6 WNW 1020,6 0 0,0
16.07.2019 11:00:00 14,8 11,9 4 2 8 4 W 1020,9 0 0,0
16.07.2019 10:00:00 13,6 12,6 4 2 6 3 SW 1020,9 0 0,0
16.07.2019 09:00:00 12,5 12,3 4 2 6 3 SW 1020,8 0 0,0
16.07.2019 08:00:00 11,7 11,7 4 2 5 3 SW 1020,7 0 0,0
16.07.2019 07:00:00 10,3 10,3 4 2 4 2 SSW 1020,6 0 0,0
16.07.2019 06:00:00 8,5 8,5 4 2 5 3 S 1020,3 0 0,0
16.07.2019 05:00:00 6,8 6,8 0 0 4 2 N 1020,4 0 0,0
16.07.2019 04:00:00 7,1 7,1 0 0 4 2 N 1020,7 0 0,0
16.07.2019 03:00:00 9,3 9,3 4 2 6 3 SSW 1021,0 0 0,0
16.07.2019 02:00:00 9,9 9,5 4 2 5 3 NW 1021,0 0 0,0
16.07.2019 01:00:00 13,2 11,7 4 2 6 4 NW 1020,8 0 0,0
16.07.2019 00:00:00 15,2 12,1 4 2 11 6 NW 1020,5 0 0,0
15.07.2019 23:00:00 16,1 11,7 6 4 13 7 N 1020,4 0 0,0
15.07.2019 22:00:00 16,8 11,0 7 4 13 7 NW 1020,4 0 0,0
15.07.2019 21:00:00 17,3 10,7 6 3 18 10 NNW 1020,1 0 0,0
15.07.2019 20:00:00 17,6 10,7 7 4 15 8 N 1020,2 0 0,0
15.07.2019 19:00:00 17,9 10,1 10 5 17 9 NNW 1020,2 0 0,0
15.07.2019 18:00:00 18,1 10,0 8 5 26 14 N 1020,6 22 0,0
15.07.2019 17:00:00 17,2 10,8 7 4 21 12 N 1020,9 0 0,0
15.07.2019 16:00:00 17,2 11,2 9 5 18 10 NNW 1020,9 0 0,0
15.07.2019 15:00:00 16,5 11,6 11 6 22 12 N 1020,9 0 0,0
15.07.2019 14:00:00 16,6 11,8 7 4 16 9 NNE 1021,0 0 0,0
15.07.2019 13:00:00 15,9 11,2 12 6 20 11 NNW 1021,1 0 0,0
15.07.2019 12:00:00 15,8 11,2 6 4 10 6 NW 1020,9 0 0,0
15.07.2019 11:00:00 15,7 10,9 5 3 9 5 NW 1021,0 0 0,0
15.07.2019 10:00:00 14,9 11,5 6 4 10 5 NNW 1021,2 0 0,0
15.07.2019 09:00:00 14,0 11,5 4 2 7 4 N 1021,1 0 0,0
15.07.2019 08:00:00 12,8 11,8 4 2 6 3 WSW 1021,1 0 0,0
15.07.2019 07:00:00 11,3 11,2 4 2 7 4 NNW 1020,9 0 0,0
15.07.2019 06:00:00 9,6 9,6 4 2 4 2 WNW 1020,7 0 0,0
15.07.2019 05:00:00 7,7 7,6 4 2 5 3 NW 1020,7 0 0,0
15.07.2019 04:00:00 9,4 8,7 4 2 7 4 NNW 1020,9 0 0,0
15.07.2019 03:00:00 12,3 10,4 5 3 9 5 NNW 1021,2 0 0,0
15.07.2019 02:00:00 13,7 10,6 7 4 21 12 N 1021,0 0 0,0
15.07.2019 01:00:00 15,4 10,7 13 7 22 12 N 1021,0 0 0,0
15.07.2019 00:00:00 14,9 12,2 5 3 10 6 N 1020,9 0 0,0
14.07.2019 23:00:00 15,6 12,5 4 2 13 7 NNW 1020,7 0 0,0
14.07.2019 22:00:00 17,0 12,5 8 4 23 12 N 1020,4 0 0,0
14.07.2019 21:00:00 17,7 12,4 11 6 27 14 N 1020,2 0 0,0
14.07.2019 20:00:00 17,9 12,7 7 4 21 11 N 1020,2 0 0,0
14.07.2019 19:00:00 18,1 12,3 13 7 24 13 NNW 1020,2 0 0,0
14.07.2019 18:00:00 18,4 12,2 13 7 22 12 N 1020,2 0 0,0
14.07.2019 17:00:00 18,2 12,7 11 6 24 13 N 1020,3 15 0,0
14.07.2019 16:00:00 18,6 12,4 11 6 20 11 N 1020,5 6 0,0

tt = Température de l'air
td = dewpoint
ff = Vitesse du vent
fx = gusts
dd = Direction du vent
ppp = reduced air pressure
sd = Ensoleillement
rr = Quantités de précipitations

stations d'obs. à proximité